Terminal Aerodrome Forecast
Issued by NWS

Home | Current Version | Previous Version | Text Only | Print | Product List | Glossary On
Versions: 1 2 3 4 5 6 7 8 9 10 11 12
000
FTAK31 PAFA 291730
TAFAFA
TAF
PAFA 291730Z 2918/3024 VRB04KT P6SM VCSH SCT035 BKN050 BKN100
     FM300300 27005KT 5SM -SN SCT025 BKN035 OVC050
     FM300900 27005KT 2SM -SN BKN015 BKN025 OVC035
     FM301500 27005KT 5SM -SN BR SCT015 BKN025 OVC035=

USA.gov is the U.S. government's official web portal to all federal, state and local government web resources and services.